River & Lake Conditions

Stages:
  • Latest Observation

    Normal Stage: 10.85 ft3.3 m

    Flow: 147 kcfs
    Impacts: Above 8.7 to 9.2 feet, the Corps will raise the gates out of the water, allowing for open river conditions. This corresponds to a discharge of approximately 110,000 cfs.
  • Stages

Stage Date Flow
12.10 ft3.69 mForecast 07/31/2016 12:00 pm 166.000 kcfs
12.10 ft3.69 mForecast 07/31/2016 06:00 am 166.000 kcfs
12.10 ft3.69 mForecast 07/31/2016 12:00 am 166.000 kcfs
12.10 ft3.69 mForecast 07/30/2016 06:00 pm 166.000 kcfs
12.20 ft3.72 mForecast 07/30/2016 12:00 pm 168.000 kcfs
12.20 ft3.72 mForecast 07/30/2016 06:00 am 168.000 kcfs
12.20 ft3.72 mForecast 07/30/2016 12:00 am 168.000 kcfs
12.20 ft3.72 mForecast 07/29/2016 06:00 pm 168.000 kcfs
12.20 ft3.72 mForecast 07/29/2016 12:00 pm 168.000 kcfs
12.20 ft3.72 mForecast 07/29/2016 06:00 am 168.000 kcfs
12.20 ft3.72 mForecast 07/29/2016 12:00 am 168.000 kcfs
12.20 ft3.72 mForecast 07/28/2016 06:00 pm 168.000 kcfs
12.20 ft3.72 mForecast 07/28/2016 12:00 pm 168.000 kcfs
12.20 ft3.72 mForecast 07/28/2016 06:00 am 168.000 kcfs
12.20 ft3.72 mForecast 07/28/2016 12:00 am 168.000 kcfs
12.10 ft3.69 mForecast 07/27/2016 06:00 pm 166.000 kcfs
12.10 ft3.69 mForecast 07/27/2016 12:00 pm 166.000 kcfs
12.10 ft3.69 mForecast 07/27/2016 06:00 am 166.000 kcfs
12.10 ft3.69 mForecast 07/27/2016 12:00 am 166.000 kcfs
12.00 ft3.66 mForecast 07/26/2016 06:00 pm 165.000 kcfs
12.00 ft3.66 mForecast 07/26/2016 12:00 pm 165.000 kcfs
12.00 ft3.66 mForecast 07/26/2016 06:00 am 165.000 kcfs
12.00 ft3.66 mForecast 07/26/2016 12:00 am 165.000 kcfs
12.00 ft3.66 mForecast 07/25/2016 06:00 pm 165.000 kcfs
11.90 ft3.63 mForecast 07/25/2016 12:00 pm 163.000 kcfs
11.80 ft3.60 mForecast 07/25/2016 06:00 am 162.000 kcfs
11.70 ft3.57 mForecast 07/25/2016 12:00 am 160.000 kcfs
11.50 ft3.51 mForecast 07/24/2016 06:00 pm 157.000 kcfs
11.40 ft3.47 mForecast 07/24/2016 12:00 pm 155.000 kcfs
11.20 ft3.41 mForecast 07/24/2016 06:00 am 152.000 kcfs
11.00 ft3.35 mForecast 07/24/2016 12:00 am 149.000 kcfs
10.85 ft3.35 m 07/23/2016 08:00 pm 147.000 kcfs
10.80 ft3.35 m 07/23/2016 07:50 pm 146.000 kcfs
10.80 ft3.35 m 07/23/2016 07:40 pm 146.000 kcfs
10.80 ft3.35 m 07/23/2016 07:30 pm 146.000 kcfs
10.78 ft3.35 m 07/23/2016 07:20 pm 146.000 kcfs
10.80 ft3.35 m 07/23/2016 07:10 pm 146.000 kcfs
10.78 ft3.35 m 07/23/2016 07:00 pm 146.000 kcfs
10.79 ft3.35 m 07/23/2016 06:50 pm 146.000 kcfs
10.78 ft3.35 m 07/23/2016 06:40 pm 146.000 kcfs
10.76 ft3.35 m 07/23/2016 06:30 pm 146.000 kcfs
10.76 ft3.35 m 07/23/2016 06:20 pm 146.000 kcfs
10.80 ft3.35 m 07/23/2016 06:10 pm 146.000 kcfs
10.76 ft3.35 m 07/23/2016 06:00 pm 146.000 kcfs
10.76 ft3.35 m 07/23/2016 05:50 pm 146.000 kcfs
10.78 ft3.35 m 07/23/2016 05:40 pm 146.000 kcfs
10.79 ft3.35 m 07/23/2016 05:30 pm 146.000 kcfs
10.76 ft3.35 m 07/23/2016 05:20 pm 146.000 kcfs
10.75 ft3.35 m 07/23/2016 05:10 pm 146.000 kcfs
10.75 ft3.35 m 07/23/2016 05:00 pm 146.000 kcfs
10.75 ft3.35 m 07/23/2016 04:50 pm 146.000 kcfs
10.75 ft3.35 m 07/23/2016 04:40 pm 146.000 kcfs
10.75 ft3.35 m 07/23/2016 04:30 pm 146.000 kcfs
10.75 ft3.35 m 07/23/2016 04:20 pm 146.000 kcfs
10.73 ft3.35 m 07/23/2016 04:10 pm 145.000 kcfs
10.74 ft3.35 m 07/23/2016 04:00 pm 145.000 kcfs
10.74 ft3.35 m 07/23/2016 03:50 pm 145.000 kcfs
10.71 ft3.35 m 07/23/2016 03:40 pm 145.000 kcfs
10.72 ft3.35 m 07/23/2016 03:30 pm 145.000 kcfs
10.72 ft3.35 m 07/23/2016 03:20 pm 145.000 kcfs
10.71 ft3.35 m 07/23/2016 03:10 pm 145.000 kcfs
10.71 ft3.35 m 07/23/2016 03:00 pm 145.000 kcfs